createdAt,value
2018-09-24T00:12:51.473Z,4.8
2018-09-24T00:12:51.614Z,3.69
2018-09-24T00:12:51.614Z,3.69
2018-09-24T00:12:51.639Z,3.69
2018-09-24T00:18:46.461Z,4.27
2018-09-24T00:24:41.496Z,3.83
2018-09-24T00:30:36.486Z,4.31
2018-09-24T00:36:31.493Z,4.53
2018-09-24T00:42:26.458Z,4.04
2018-09-24T00:48:21.457Z,4.25
2018-09-24T00:54:16.493Z,4.26
2018-09-24T01:00:11.461Z,3.81
2018-09-24T01:06:06.452Z,4.44
2018-09-24T01:12:01.476Z,4.06
2018-09-24T01:17:56.531Z,4.43
2018-09-24T01:23:51.511Z,3.84
2018-09-24T01:29:46.465Z,3.55
2018-09-24T01:35:41.487Z,3.97
2018-09-24T01:41:36.509Z,4.1
2018-09-24T01:47:31.504Z,4.05
2018-09-24T01:53:26.562Z,3.97
2018-09-24T01:59:21.669Z,3.87
2018-09-24T02:05:16.523Z,4.03
2018-09-24T02:11:11.495Z,3.88
2018-09-24T02:17:06.487Z,5.01
2018-09-24T02:23:01.487Z,4.5
2018-09-24T02:28:56.488Z,4.17
2018-09-24T02:34:51.505Z,4.69
2018-09-24T02:40:46.495Z,5.09
2018-09-24T02:46:41.540Z,4.34
2018-09-24T03:16:16.516Z,4.2
2018-09-24T03:16:16.667Z,4.11
2018-09-24T03:16:16.681Z,4.06
2018-09-24T03:16:16.725Z,4.06
2018-09-24T03:22:11.533Z,4.66
2018-09-24T03:28:06.583Z,4.32
2018-09-24T03:34:01.542Z,4
2018-09-24T03:39:56.518Z,4.69
2018-09-24T03:45:51.543Z,5.12
2018-09-24T03:51:46.554Z,4.95
2018-09-24T03:57:41.539Z,4.46
2018-09-24T04:03:36.631Z,4.17
2018-09-24T04:09:31.569Z,4.87
2018-09-24T04:15:26.530Z,4.93
2018-09-24T04:21:21.602Z,4.86
2018-09-24T04:27:16.565Z,4.46
2018-09-24T04:33:11.617Z,4.59
2018-09-24T04:39:06.573Z,5.22
2018-09-24T04:45:01.544Z,5.09
2018-09-24T04:50:56.568Z,5.16
2018-09-24T04:56:51.543Z,5.12
2018-09-24T05:02:46.551Z,4.93
2018-09-24T05:08:41.582Z,4.57
2018-09-24T05:14:36.572Z,4.87
2018-09-24T05:20:31.551Z,4.07
2018-09-24T05:26:26.563Z,4.69
2018-09-24T05:32:21.618Z,4.43
2018-09-24T05:38:16.592Z,4.28
2018-09-24T05:44:11.615Z,5.3
2018-09-24T05:50:06.594Z,7.26
2018-09-24T06:13:46.721Z,9.72
2018-09-24T06:13:46.806Z,8.76
2018-09-24T06:13:46.903Z,8.76
2018-09-24T06:13:46.977Z,8.76
2018-09-24T06:19:41.568Z,9.68
2018-09-24T06:25:36.617Z,9.78
2018-09-24T06:31:31.599Z,9.12
2018-09-24T06:37:26.571Z,8
2018-09-24T06:43:21.590Z,6.44
2018-09-24T06:49:16.584Z,7.24
2018-09-24T06:55:11.572Z,5.73
2018-09-24T07:01:06.585Z,5.96
2018-09-24T07:07:01.607Z,5.98
2018-09-24T07:12:56.596Z,5.39
2018-09-24T07:18:51.595Z,5.09
2018-09-24T07:24:46.595Z,5.33
2018-09-24T07:30:42.114Z,4.54
2018-09-24T07:36:40.764Z,4.9
2018-09-24T07:42:31.634Z,5.21
2018-09-24T07:48:26.616Z,4.58
2018-09-24T07:54:22.720Z,4.92
2018-09-24T08:00:18.739Z,5.15
2018-09-24T08:06:12.077Z,5.67
2018-09-24T08:12:10.779Z,7.92
2018-09-24T08:18:01.664Z,8.65
2018-09-24T08:23:56.664Z,13.99
2018-09-24T08:29:51.633Z,15.73
2018-09-24T08:35:46.614Z,7.8
2018-09-24T08:41:41.629Z,12.9
2018-09-24T08:47:37.720Z,10.42
2018-09-24T09:17:11.673Z,5.7
2018-09-24T09:17:11.818Z,4.51
2018-09-24T09:17:11.862Z,4.51
2018-09-24T09:17:15.881Z,4.51
2018-09-24T09:23:06.658Z,4.19
2018-09-24T09:29:01.701Z,4.2
2018-09-24T09:34:56.714Z,3.53
2018-09-24T09:40:51.644Z,3.94
2018-09-24T09:46:46.771Z,4.93
2018-09-24T09:52:41.625Z,5.25
2018-09-24T09:58:36.659Z,4.72
2018-09-24T10:04:32.978Z,5.3
2018-09-24T10:10:26.673Z,4.52
2018-09-24T10:16:21.688Z,3.85
2018-09-24T10:22:16.655Z,3.33
2018-09-24T10:28:11.678Z,3.33
2018-09-24T10:34:06.738Z,3.62
2018-09-24T10:40:05.737Z,3.36
2018-09-24T10:45:56.707Z,3.91
2018-09-24T10:51:51.689Z,4.16
2018-09-24T10:57:46.686Z,4.75
2018-09-24T11:03:43.255Z,3.61
2018-09-24T11:09:36.702Z,3.32
2018-09-24T11:15:31.749Z,3.15
2018-09-24T11:21:28.401Z,3.1
2018-09-24T11:27:21.707Z,3.15
2018-09-24T11:33:18.803Z,2.58
2018-09-24T11:39:11.717Z,1.88
2018-09-24T11:45:06.750Z,1.79
2018-09-24T11:51:01.697Z,2.16
2018-09-24T12:14:43.300Z,2.1
2018-09-24T12:14:43.431Z,2.68
2018-09-24T12:14:43.480Z,2.68
2018-09-24T12:14:45.824Z,2.68
2018-09-24T12:20:36.701Z,2.25
2018-09-24T12:26:31.735Z,2.42
2018-09-24T12:32:26.736Z,2.95
2018-09-24T12:38:25.818Z,3.88
2018-09-24T12:44:16.728Z,4.06
2018-09-24T12:50:11.745Z,4.75
2018-09-24T12:56:06.758Z,5.16
2018-09-24T13:02:01.799Z,3.25
2018-09-24T13:07:56.754Z,2.48
2018-09-24T13:13:52.853Z,2.3
2018-09-24T13:19:46.741Z,2.2
2018-09-24T13:25:42.975Z,1.7
2018-09-24T13:31:36.766Z,1.92
2018-09-24T13:37:31.757Z,2.17
2018-09-24T13:43:26.771Z,1.76
2018-09-24T13:49:21.909Z,2.12
2018-09-24T13:55:16.754Z,1.43
2018-09-24T14:01:11.824Z,1.25
2018-09-24T14:07:06.777Z,1.26
2018-09-24T14:13:01.762Z,1.05
2018-09-24T14:18:56.752Z,1.1
2018-09-24T14:24:51.783Z,1.22
2018-09-24T14:30:46.805Z,0.92
2018-09-24T14:36:41.765Z,1.03
2018-09-24T14:42:40.891Z,1.02
2018-09-24T14:48:31.792Z,1.03
2018-09-24T15:18:06.798Z,1.06
2018-09-24T15:18:06.935Z,1.1
2018-09-24T15:18:06.937Z,1.1
2018-09-24T15:18:06.974Z,1.1
2018-09-24T15:24:01.778Z,0.99
2018-09-24T15:29:56.810Z,0.92
2018-09-24T15:35:51.834Z,0.95
2018-09-24T15:41:46.811Z,0.85
2018-09-24T15:47:43.114Z,0.96
2018-09-24T15:53:36.836Z,1.1
2018-09-24T15:59:31.809Z,0.82
2018-09-24T16:05:26.809Z,0.72
2018-09-24T16:11:23.682Z,0.87
2018-09-24T16:17:16.816Z,0.88
2018-09-24T16:23:11.839Z,0.66
2018-09-24T16:29:06.794Z,0.8
2018-09-24T16:35:01.856Z,0.73
2018-09-24T16:40:56.839Z,0.77
2018-09-24T16:46:51.791Z,0.73
2018-09-24T16:52:46.858Z,0.67
2018-09-24T16:58:41.838Z,0.68
2018-09-24T17:04:38.069Z,0.65
2018-09-24T17:10:33.191Z,0.84
2018-09-24T17:16:26.802Z,0.67
2018-09-24T17:22:21.806Z,0.63
2018-09-24T17:28:16.856Z,1
2018-09-24T17:34:11.873Z,0.75
2018-09-24T17:40:06.835Z,0.69
2018-09-24T17:46:01.837Z,0.75
2018-09-24T17:51:56.848Z,0.84
2018-09-24T18:15:36.957Z,0.82
2018-09-24T18:15:38.202Z,0.66
2018-09-24T18:15:38.324Z,0.82
2018-09-24T18:15:41.136Z,0.82
2018-09-24T18:21:31.843Z,0.91
2018-09-24T18:27:26.836Z,1.87
2018-09-24T18:33:21.952Z,0.71
2018-09-24T18:39:16.849Z,0.78
2018-09-24T18:45:15.985Z,0.98
2018-09-24T18:51:06.884Z,0.77
2018-09-24T18:57:01.918Z,0.65
2018-09-24T19:02:56.840Z,0.65
2018-09-24T19:08:51.881Z,1.03
2018-09-24T19:14:46.834Z,0.98
2018-09-24T19:20:43.415Z,0.64
2018-09-24T19:26:36.850Z,0.99
2018-09-24T19:32:31.849Z,0.63
2018-09-24T19:38:26.851Z,0.9
2018-09-24T19:44:21.853Z,0.71
2018-09-24T19:50:16.951Z,1.08
2018-09-24T19:56:11.852Z,0.78
2018-09-24T20:02:06.883Z,0.53
2018-09-24T20:08:01.891Z,0.68
2018-09-24T20:13:56.894Z,0.63
2018-09-24T20:19:51.885Z,0.64
2018-09-24T20:25:46.839Z,0.59
2018-09-24T20:31:41.854Z,0.68
2018-09-24T20:37:36.863Z,0.93
2018-09-24T20:43:31.969Z,0.6
2018-09-24T20:49:26.862Z,0.71
2018-09-24T20:55:21.862Z,0.61
2018-09-24T21:19:01.885Z,0.87
2018-09-24T21:19:01.943Z,0.62
2018-09-24T21:19:01.953Z,0.62
2018-09-24T21:19:01.996Z,0.62
2018-09-24T21:24:56.931Z,0.87
2018-09-24T21:30:51.909Z,0.54
2018-09-24T21:36:46.927Z,0.57
2018-09-24T21:42:41.921Z,0.63
2018-09-24T21:48:36.892Z,0.64
2018-09-24T21:54:31.943Z,0.7
2018-09-24T22:00:26.858Z,0.85
2018-09-24T22:06:21.866Z,0.63
2018-09-24T22:12:18.053Z,0.71
2018-09-24T22:18:11.849Z,0.64
2018-09-24T22:24:06.865Z,0.75
2018-09-24T22:30:02.062Z,0.61
2018-09-24T22:35:58.115Z,0.69
2018-09-24T22:41:53.311Z,0.91
2018-09-24T22:47:46.899Z,0.53
2018-09-24T22:53:41.863Z,0.8
2018-09-24T22:59:36.936Z,0.75
2018-09-24T23:05:35.984Z,0.55
2018-09-24T23:11:26.875Z,0.62
2018-09-24T23:17:21.864Z,0.84
2018-09-24T23:23:16.880Z,0.55
2018-09-24T23:29:11.857Z,0.61
2018-09-24T23:35:08.198Z,0.69
2018-09-24T23:41:05.958Z,0.78
2018-09-24T23:46:56.887Z,0.71
2018-09-24T23:52:51.920Z,0.73
